Time;durP1;ratioP1;P1;durP2;ratioP2;P2;SDS_P1;SDS_P2;PMS_P1;PMS_P2;Temp;Humidity;BMP_temperature;BMP_pressure;BME280_temperature;BME280_humidity;BME280_pressure;Samples;Min_cycle;Max_cycle;Signal;HPM_P1;HPM_P2
2022/01/11 00:00:27;;;;;;;2.17;1.10;;;;;;;4.54;100.00;93854.00;4978592;23;20243;-62
2022/01/11 00:02:55;;;;;;;0.70;0.70;;;;;;;4.41;100.00;93853.28;4972381;28;20187;-63
2022/01/11 00:05:25;;;;;;;0.60;0.60;;;;;;;4.49;100.00;93854.34;4972831;28;20208;-63
2022/01/11 00:07:52;;;;;;;1.00;0.60;;;;;;;4.63;100.00;93869.22;4972451;28;20181;-61
2022/01/11 00:10:28;;;;;;;2.00;1.07;;;;;;;4.79;100.00;93883.97;4972497;28;20254;-63
2022/01/11 00:12:55;;;;;;;0.63;0.60;;;;;;;4.54;100.00;93866.59;4971115;28;20194;-60
2022/01/11 00:15:21;;;;;;;0.90;0.70;;;;;;;4.60;100.00;93877.00;4972384;28;20213;-62
2022/01/11 00:17:47;;;;;;;1.07;0.83;;;;;;;4.39;100.00;93871.03;4972224;28;20247;-61
2022/01/11 00:20:15;;;;;;;1.63;1.20;;;;;;;4.36;100.00;93873.78;4972476;28;20248;-60
2022/01/11 00:24:26;;;;;;;2.60;1.07;;;;;;;4.35;100.00;93881.41;4971086;28;20659;-62
2022/01/11 00:25:32;;;;;;;2.07;1.07;;;;;;;4.29;100.00;93877.63;4972368;28;20248;-64
2022/01/11 00:27:58;;;;;;;1.93;1.30;;;;;;;4.39;100.00;93883.59;4972300;28;20184;-62
2022/01/11 00:30:29;;;;;;;1.43;1.30;;;;;;;4.36;100.00;93881.31;4972371;28;20222;-60
2022/01/11 00:32:56;;;;;;;1.43;0.97;;;;;;;4.38;100.00;93874.47;4972018;28;20165;-61
2022/01/11 00:35:27;;;;;;;1.10;0.90;;;;;;;4.54;100.00;93885.00;4971072;28;20593;-61
2022/01/11 00:37:53;;;;;;;1.93;1.30;;;;;;;4.51;100.00;93882.69;4971962;28;20169;-62
2022/01/11 00:40:19;;;;;;;2.03;1.10;;;;;;;4.62;100.00;93889.47;4972502;28;20208;-63
2022/01/11 00:42:44;;;;;;;2.17;1.23;;;;;;;4.56;100.00;93895.75;4972006;28;20189;-63
2022/01/11 00:45:11;;;;;;;1.67;1.13;;;;;;;4.56;100.00;93890.72;4971652;28;20208;-62
2022/01/11 00:47:37;;;;;;;2.43;1.00;;;;;;;4.65;100.00;93901.81;4971764;28;20185;-62
2022/01/11 00:50:05;;;;;;;1.80;1.10;;;;;;;4.51;100.00;93895.28;4954518;28;20542;-60
2022/01/11 00:52:30;;;;;;;1.67;0.90;;;;;;;4.53;100.00;93900.19;4971868;28;20674;-60
2022/01/11 00:54:56;;;;;;;1.80;1.27;;;;;;;4.63;100.00;93901.13;4971980;28;20240;-62
2022/01/11 00:57:22;;;;;;;1.50;1.13;;;;;;;4.51;100.00;93900.31;4971784;28;20189;-61
2022/01/11 00:59:48;;;;;;;2.70;1.20;;;;;;;4.57;100.00;93914.97;4971681;28;20347;-62
2022/01/11 01:02:13;;;;;;;2.63;0.90;;;;;;;4.52;100.00;93908.66;4970444;28;20256;-59
2022/01/11 01:04:39;;;;;;;2.03;1.00;;;;;;;4.08;100.00;93906.88;4971810;28;20217;-61
2022/01/11 01:07:05;;;;;;;1.27;1.10;;;;;;;4.28;100.00;93913.78;4971542;28;20180;-61
2022/01/11 01:09:40;;;;;;;1.50;0.80;;;;;;;3.77;100.00;93912.44;4971462;28;20239;-62
2022/01/11 01:12:06;;;;;;;1.73;0.70;;;;;;;4.06;100.00;93919.53;4971577;28;20279;-64
2022/01/11 01:14:32;;;;;;;1.70;0.70;;;;;;;4.05;100.00;93924.66;4970085;28;20190;-62
2022/01/11 01:16:57;;;;;;;1.40;0.90;;;;;;;4.17;100.00;93919.56;4970124;28;20271;-62
2022/01/11 01:19:26;;;;;;;2.80;1.10;;;;;;;4.26;100.00;93916.38;4971602;28;20188;-63
2022/01/11 01:21:53;;;;;;;1.20;0.90;;;;;;;4.27;100.00;93919.72;4971195;28;20188;-63
2022/01/11 01:24:18;;;;;;;1.60;0.93;;;;;;;4.19;100.00;93940.38;4971331;28;20181;-61
2022/01/11 01:26:44;;;;;;;2.57;1.20;;;;;;;4.22;100.00;93934.34;4971186;28;20184;-60
2022/01/11 01:29:09;;;;;;;0.70;0.70;;;;;;;4.45;100.00;93938.50;4971233;28;20593;-59
2022/01/11 01:31:35;;;;;;;1.00;0.70;;;;;;;4.54;100.00;93957.16;4970873;28;20767;-61
2022/01/11 01:34:00;;;;;;;1.73;1.00;;;;;;;4.37;100.00;93945.81;4970988;28;20264;-59
2022/01/11 01:36:27;;;;;;;0.70;0.60;;;;;;;4.31;100.00;93937.88;4970877;28;20199;-61
2022/01/11 01:38:53;;;;;;;0.47;0.40;;;;;;;4.33;100.00;93946.13;4970945;28;20238;-63
2022/01/11 01:41:20;;;;;;;0.63;0.57;;;;;;;4.28;100.00;93944.75;4970782;28;20206;-61
2022/01/11 01:43:53;;;;;;;0.60;0.60;;;;;;;4.43;100.00;93947.88;4970947;28;20224;-60
2022/01/11 01:46:19;;;;;;;1.33;0.60;;;;;;;4.46;100.00;93950.19;4969535;28;20202;-62
2022/01/11 01:48:45;;;;;;;1.07;0.70;;;;;;;4.14;100.00;93939.91;4970874;28;20196;-59
2022/01/11 01:51:11;;;;;;;0.40;0.30;;;;;;;4.20;100.00;93938.69;4970642;28;20196;-59
2022/01/11 01:53:39;;;;;;;4.33;0.40;;;;;;;4.23;100.00;93949.31;4970763;28;20183;-60
2022/01/11 01:56:06;;;;;;;0.63;0.40;;;;;;;4.13;100.00;93952.59;4970603;28;20214;-63
2022/01/11 01:58:32;;;;;;;0.87;0.50;;;;;;;4.00;100.00;93954.38;4970522;28;20259;-62
2022/01/11 02:01:04;;;;;;;0.30;0.30;;;;;;;4.04;100.00;93950.75;4969267;28;20235;-63
2022/01/11 02:03:37;;;;;;;0.50;0.40;;;;;;;4.11;100.00;93956.94;4970587;28;20547;-61
2022/01/11 02:06:03;;;;;;;0.30;0.20;;;;;;;4.15;100.00;93963.34;4970572;28;20201;-61
2022/01/11 02:08:28;;;;;;;0.43;0.43;;;;;;;4.09;100.00;93962.06;4969169;28;20195;-59
2022/01/11 02:10:54;;;;;;;0.20;0.20;;;;;;;4.19;100.00;93972.28;4969330;28;20301;-61
2022/01/11 02:13:20;;;;;;;0.20;0.20;;;;;;;4.16;100.00;93967.47;4970553;28;20229;-61
2022/01/11 02:15:46;;;;;;;0.30;0.30;;;;;;;4.19;100.00;93963.03;4969008;28;20208;-63
2022/01/11 02:18:14;;;;;;;0.30;0.30;;;;;;;4.19;100.00;93968.06;4970525;28;20188;-62
2022/01/11 02:20:43;;;;;;;1.00;0.57;;;;;;;4.35;100.00;93971.97;4970533;28;20208;-62
2022/01/11 02:23:09;;;;;;;0.63;0.50;;;;;;;4.28;100.00;93963.28;4970181;28;20275;-61
2022/01/11 02:25:35;;;;;;;0.30;0.30;;;;;;;4.26;100.00;93968.41;4970517;28;20332;-63
2022/01/11 02:28:01;;;;;;;0.30;0.30;;;;;;;4.30;100.00;93972.31;4969996;28;20256;-61
2022/01/11 02:30:31;;;;;;;0.70;0.70;;;;;;;4.41;100.00;93974.84;4968914;28;20222;-60
2022/01/11 02:32:57;;;;;;;0.43;0.23;;;;;;;4.12;100.00;93956.81;4968827;28;20193;-62
2022/01/11 02:35:22;;;;;;;0.80;0.50;;;;;;;4.11;100.00;93964.47;4970534;28;20215;-59
2022/01/11 02:37:48;;;;;;;0.80;0.57;;;;;;;4.00;100.00;93967.72;4970164;28;20177;-62
2022/01/11 02:40:14;;;;;;;0.70;0.67;;;;;;;4.18;100.00;93984.03;4970482;28;20243;-61
2022/01/11 02:42:40;;;;;;;0.80;0.80;;;;;;;3.95;100.00;93976.50;4970029;28;20181;-62
2022/01/11 02:45:17;;;;;;;0.80;0.80;;;;;;;3.94;100.00;93978.22;4972437;28;20208;-61
2022/01/11 02:47:45;;;;;;;0.57;0.57;;;;;;;3.90;100.00;93974.31;4976400;28;20518;-62
2022/01/11 02:50:12;;;;;;;0.60;0.60;;;;;;;3.90;100.00;93983.59;4976683;28;20251;-61
2022/01/11 02:52:37;;;;;;;0.97;0.80;;;;;;;3.72;100.00;93974.78;4976219;28;20565;-62
2022/01/11 02:55:08;;;;;;;1.00;0.70;;;;;;;3.50;100.00;93983.00;4976884;28;20208;-58
2022/01/11 02:57:37;;;;;;;1.23;0.77;;;;;;;3.57;100.00;93989.22;4976618;28;20619;-61
2022/01/11 03:00:12;;;;;;;0.70;0.70;;;;;;;3.77;100.00;93997.91;4976577;28;20212;-59
2022/01/11 03:02:38;;;;;;;0.80;0.70;;;;;;;3.85;100.00;93993.16;4976196;28;20339;-62
2022/01/11 03:05:05;;;;;;;1.17;1.03;;;;;;;3.54;100.00;93986.09;4976715;28;20212;-60
2022/01/11 03:07:31;;;;;;;1.13;0.87;;;;;;;3.76;100.00;94006.34;4958800;28;20272;-59
2022/01/11 03:12:23;;;;;;;0.70;0.60;;;;;;;3.63;100.00;94003.06;4974920;28;20180;-62
2022/01/11 03:14:48;;;;;;;1.00;0.67;;;;;;;3.71;100.00;94023.44;4976280;28;20208;-61
2022/01/11 03:17:14;;;;;;;2.13;1.00;;;;;;;3.65;100.00;94011.31;4975169;28;20188;-59
2022/01/11 03:19:39;;;;;;;0.60;0.60;;;;;;;3.65;100.00;94009.59;4975084;28;20337;-62
2022/01/11 03:22:05;;;;;;;1.00;0.93;;;;;;;3.63;100.00;94005.59;4975812;28;20205;-59
2022/01/11 03:24:30;;;;;;;1.43;0.90;;;;;;;3.66;100.00;94002.84;4974606;28;20199;-59
2022/01/11 03:26:56;;;;;;;2.10;0.90;;;;;;;3.61;100.00;94022.47;4976047;28;20176;-62
2022/01/11 03:29:21;;;;;;;1.23;0.80;;;;;;;3.42;100.00;94008.66;4976090;28;20540;-62
2022/01/11 03:31:47;;;;;;;1.80;0.97;;;;;;;3.39;100.00;94008.84;4976201;28;20183;-59
2022/01/11 03:34:18;;;;;;;1.33;0.90;;;;;;;3.53;100.00;94024.69;4976027;28;20224;-60
2022/01/11 03:36:43;;;;;;;0.97;0.73;;;;;;;3.24;100.00;94012.41;4976082;28;20310;-62
2022/01/11 03:39:09;;;;;;;0.90;0.70;;;;;;;3.18;100.00;94006.97;4976039;28;20266;-60
2022/01/11 03:41:34;;;;;;;2.80;0.73;;;;;;;3.28;100.00;94020.53;4975619;28;20196;-63
2022/01/11 03:44:00;;;;;;;0.93;0.53;;;;;;;2.89;100.00;94026.44;4974494;28;20196;-62
2022/01/11 03:46:25;;;;;;;0.70;0.70;;;;;;;2.49;100.00;94009.84;4975910;28;20224;-59
2022/01/11 03:48:51;;;;;;;4.93;2.17;;;;;;;2.65;100.00;94007.97;4974331;28;20227;-60
2022/01/11 03:51:16;;;;;;;0.73;0.63;;;;;;;2.57;100.00;94025.22;4975523;28;20204;-60
2022/01/11 03:53:54;;;;;;;1.70;0.87;;;;;;;2.17;100.00;94014.41;4975584;28;20176;-59
2022/01/11 03:56:22;;;;;;;0.60;0.40;;;;;;;2.30;100.00;94019.47;4972453;28;20298;-61
2022/01/11 03:58:52;;;;;;;0.50;0.50;;;;;;;2.41;100.00;94022.91;4970978;28;20190;-59
2022/01/11 04:01:18;;;;;;;0.53;0.50;;;;;;;2.54;100.00;94032.97;4972657;28;20230;-61
2022/01/11 04:03:49;;;;;;;0.90;0.90;;;;;;;2.28;100.00;94026.28;4972549;28;20184;-62
2022/01/11 04:06:16;;;;;;;0.57;0.53;;;;;;;1.95;100.00;94028.38;4972354;28;20236;-62
2022/01/11 04:08:44;;;;;;;0.70;0.60;;;;;;;1.98;100.00;94028.19;4972324;28;20198;-61
2022/01/11 04:11:11;;;;;;;0.50;0.50;;;;;;;2.13;100.00;94027.22;4970844;28;20200;-62
2022/01/11 04:13:37;;;;;;;0.50;0.50;;;;;;;1.88;100.00;94034.66;4970896;28;20225;-60
2022/01/11 04:16:03;;;;;;;1.27;0.70;;;;;;;1.88;100.00;94039.69;4971993;28;20702;-59
2022/01/11 04:18:28;;;;;;;0.93;0.70;;;;;;;2.20;100.00;94041.78;4972352;28;20700;-62
2022/01/11 04:20:54;;;;;;;1.03;0.90;;;;;;;2.08;100.00;94049.28;4970941;28;20254;-61
2022/01/11 04:23:19;;;;;;;0.60;0.60;;;;;;;2.41;100.00;94050.47;4971964;28;20204;-64
2022/01/11 04:25:44;;;;;;;1.07;0.80;;;;;;;2.50;100.00;94062.41;4972315;28;20244;-61
2022/01/11 04:28:10;;;;;;;1.13;0.80;;;;;;;2.68;100.00;94064.69;4971831;28;20181;-62
2022/01/11 04:30:37;;;;;;;1.57;0.73;;;;;;;2.29;100.00;94071.31;4972122;28;20220;-61
2022/01/11 04:33:04;;;;;;;1.97;0.83;;;;;;;2.11;100.00;94074.13;4971962;28;20168;-63
2022/01/11 04:35:30;;;;;;;2.00;0.70;;;;;;;2.09;100.00;94066.72;4972612;28;20242;-62
2022/01/11 04:37:56;;;;;;;1.20;0.80;;;;;;;2.42;100.00;94068.84;4970484;28;20687;-62
2022/01/11 04:40:21;;;;;;;1.30;0.60;;;;;;;2.37;100.00;94071.63;4972171;28;20235;-61
2022/01/11 04:42:47;;;;;;;1.77;0.97;;;;;;;2.43;100.00;94083.78;4970428;28;20179;-64
2022/01/11 04:45:14;;;;;;;1.77;1.00;;;;;;;2.42;100.00;94089.69;4970752;28;20215;-62
2022/01/11 04:47:40;;;;;;;1.90;1.17;;;;;;;2.50;100.00;94089.22;4971652;28;20175;-62
2022/01/11 04:50:08;;;;;;;1.73;1.30;;;;;;;2.72;100.00;94101.22;4971672;28;20245;-59
2022/01/11 04:52:34;;;;;;;2.07;1.30;;;;;;;2.83;100.00;94107.16;4971294;28;20185;-60
2022/01/11 04:55:00;;;;;;;1.67;1.20;;;;;;;2.66;100.00;94107.44;4971543;28;20279;-64
2022/01/11 04:57:26;;;;;;;0.80;0.80;;;;;;;2.63;100.00;94101.81;4971290;28;20321;-61
2022/01/11 04:59:51;;;;;;;1.07;0.80;;;;;;;2.52;100.00;94115.81;4971522;28;20291;-62
2022/01/11 05:02:17;;;;;;;1.17;1.00;;;;;;;2.37;100.00;94111.75;4969952;28;20563;-64
2022/01/11 05:04:43;;;;;;;1.47;0.97;;;;;;;2.63;100.00;94121.88;4970317;28;20204;-61
2022/01/11 05:07:09;;;;;;;0.90;0.80;;;;;;;2.54;100.00;94118.22;4971065;28;20183;-61
2022/01/11 05:09:34;;;;;;;1.00;0.77;;;;;;;2.25;100.00;94115.00;4970855;28;20266;-62
2022/01/11 05:12:00;;;;;;;1.10;0.60;;;;;;;2.00;100.00;94127.41;4971312;28;20227;-63
2022/01/11 05:14:25;;;;;;;1.10;0.97;;;;;;;1.96;100.00;94103.44;4969886;28;20213;-62
2022/01/11 05:16:51;;;;;;;1.33;0.60;;;;;;;3.36;100.00;94109.53;4971099;28;20177;-58
2022/01/11 05:19:16;;;;;;;0.97;0.80;;;;;;;5.19;100.00;94109.31;4970990;28;20180;-59
2022/01/11 05:21:42;;;;;;;3.30;0.87;;;;;;;6.87;100.00;94109.06;4971016;28;20165;-57
2022/01/11 05:24:09;;;;;;;1.87;0.90;;;;;;;6.04;100.00;94113.81;4971214;28;20643;-62
2022/01/11 05:26:35;;;;;;;0.87;0.80;;;;;;;5.24;100.00;94116.50;4970742;28;20204;-60
2022/01/11 05:29:02;;;;;;;1.43;0.80;;;;;;;4.70;100.00;94136.38;4969663;28;20595;-59
2022/01/11 05:31:27;;;;;;;2.23;0.70;;;;;;;3.44;100.00;94171.81;4970769;28;20206;-61
2022/01/11 05:33:53;;;;;;;1.53;0.87;;;;;;;3.12;100.00;94170.56;4970832;28;20529;-60
2022/01/11 05:36:18;;;;;;;1.23;1.07;;;;;;;2.60;100.00;94175.56;4971186;28;20192;-60
2022/01/11 05:38:44;;;;;;;0.60;0.50;;;;;;;2.48;100.00;94147.00;4971011;28;20176;-61
2022/01/11 05:41:10;;;;;;;0.70;0.70;;;;;;;2.20;100.00;94168.84;4971143;28;20242;-61
2022/01/11 05:43:37;;;;;;;0.60;0.60;;;;;;;2.14;100.00;94161.69;4970822;28;20536;-61
2022/01/11 05:46:03;;;;;;;0.90;0.60;;;;;;;1.88;100.00;94160.72;4970596;28;20195;-60
2022/01/11 05:48:32;;;;;;;0.53;0.50;;;;;;;1.87;100.00;94150.81;4970668;28;20176;-61
2022/01/11 05:50:58;;;;;;;1.43;0.57;;;;;;;1.92;100.00;94156.34;4970821;28;20221;-61
2022/01/11 05:53:23;;;;;;;1.10;0.60;;;;;;;2.09;100.00;94166.16;4969277;28;20192;-61
2022/01/11 05:55:49;;;;;;;1.87;0.40;;;;;;;2.27;100.00;94155.84;4970522;28;20689;-59
2022/01/11 05:58:15;;;;;;;0.40;0.40;;;;;;;2.19;100.00;94178.06;4970469;28;20633;-59
2022/01/11 06:00:40;;;;;;;0.60;0.60;;;;;;;2.07;100.00;94175.47;4970544;28;20255;-59
2022/01/11 06:03:06;;;;;;;0.80;0.40;;;;;;;1.87;100.00;94175.84;4970490;28;20200;-60
2022/01/11 06:05:35;;;;;;;2.60;1.30;;;;;;;1.87;100.00;94193.41;4969379;28;20210;-60
2022/01/11 06:08:00;;;;;;;0.83;0.70;;;;;;;1.88;100.00;94177.47;4969050;28;20569;-62
2022/01/11 06:10:26;;;;;;;1.63;1.13;;;;;;;1.82;100.00;94188.66;4970235;28;20231;-61
2022/01/11 06:12:51;;;;;;;1.03;0.80;;;;;;;1.68;100.00;94183.63;4970418;28;20179;-63
2022/01/11 06:15:17;;;;;;;2.17;0.67;;;;;;;1.55;100.00;94175.22;4966709;28;20204;-61
2022/01/11 06:17:42;;;;;;;0.80;0.80;;;;;;;1.47;100.00;94173.19;4951173;28;20173;-63
2022/01/11 06:20:09;;;;;;;1.60;0.60;;;;;;;1.59;100.00;94196.69;4949081;28;20209;-62
2022/01/11 06:22:36;;;;;;;1.07;0.70;;;;;;;1.62;100.00;94197.31;4949721;29;20626;-61
2022/01/11 06:25:03;;;;;;;2.40;0.93;;;;;;;2.56;100.00;94192.47;4951102;28;20208;-57
2022/01/11 06:27:30;;;;;;;1.47;0.83;;;;;;;2.75;100.00;94203.91;4950986;28;20179;-61
2022/01/11 06:29:56;;;;;;;1.23;1.00;;;;;;;2.29;100.00;94229.25;4951144;28;20355;-61
2022/01/11 06:32:21;;;;;;;0.83;0.80;;;;;;;2.25;100.00;94224.50;4950859;28;20319;-61
2022/01/11 06:34:47;;;;;;;1.30;1.00;;;;;;;2.15;100.00;94210.91;4949612;29;20244;-61
2022/01/11 06:37:13;;;;;;;1.40;0.97;;;;;;;2.14;100.00;94226.88;4950908;28;20181;-61
2022/01/11 06:39:39;;;;;;;1.10;0.80;;;;;;;1.90;100.00;94236.59;4951030;28;20241;-60
2022/01/11 06:42:05;;;;;;;2.93;1.50;;;;;;;2.05;100.00;94249.94;4951070;28;20184;-61
2022/01/11 06:44:32;;;;;;;1.70;0.93;;;;;;;2.18;100.00;94241.63;4951047;28;20523;-60
2022/01/11 06:46:57;;;;;;;1.07;1.00;;;;;;;2.15;100.00;94246.00;4951062;28;20215;-61
2022/01/11 06:49:23;;;;;;;2.00;1.30;;;;;;;2.25;100.00;94242.88;4950852;28;20692;-61
2022/01/11 06:51:49;;;;;;;2.77;1.27;;;;;;;2.11;100.00;94232.03;4950729;28;20540;-61
2022/01/11 06:54:14;;;;;;;5.03;2.00;;;;;;;1.92;100.00;94234.81;4950861;28;20189;-62
2022/01/11 06:56:39;;;;;;;3.70;1.20;;;;;;;2.28;100.00;94245.19;4949367;28;20231;-62
2022/01/11 06:59:05;;;;;;;1.20;0.90;;;;;;;2.31;100.00;94266.78;4952066;28;20196;-61
2022/01/11 07:01:32;;;;;;;2.67;1.07;;;;;;;2.35;100.00;94246.44;4950916;28;20216;-61
2022/01/11 07:03:57;;;;;;;2.27;1.37;;;;;;;2.31;100.00;94280.13;4949328;29;20189;-62
2022/01/11 07:06:23;;;;;;;3.27;1.57;;;;;;;2.37;100.00;94277.25;4950378;28;20267;-61
2022/01/11 07:08:48;;;;;;;3.30;1.60;;;;;;;2.61;100.00;94249.91;4950607;28;20212;-62
2022/01/11 07:11:14;;;;;;;5.00;1.70;;;;;;;2.60;100.00;94263.34;4950382;28;20228;-61
2022/01/11 07:13:40;;;;;;;2.43;1.60;;;;;;;2.86;100.00;94260.06;4950252;28;20256;-60
2022/01/11 07:16:05;;;;;;;2.57;1.50;;;;;;;2.39;100.00;94318.09;4949065;29;20197;-60
2022/01/11 07:18:31;;;;;;;2.63;1.50;;;;;;;2.37;100.00;94268.91;4981081;23;20238;-61
2022/01/11 07:20:57;;;;;;;4.37;2.20;;;;;;;2.52;100.00;94273.81;4988698;28;20196;-60
2022/01/11 07:23:22;;;;;;;4.50;2.23;;;;;;;2.73;100.00;94274.25;4989257;28;20188;-62
2022/01/11 07:25:47;;;;;;;2.70;1.83;;;;;;;2.64;100.00;94282.34;4988857;28;20685;-60
2022/01/11 07:28:15;;;;;;;1.90;1.17;;;;;;;2.63;100.00;94293.25;4989341;28;20621;-61
2022/01/11 07:30:41;;;;;;;2.27;1.30;;;;;;;2.54;100.00;94279.56;4988920;28;20211;-61
2022/01/11 07:33:07;;;;;;;1.47;0.93;;;;;;;2.77;100.00;94280.69;4992682;28;20184;-63
2022/01/11 07:35:33;;;;;;;2.60;1.20;;;;;;;2.82;100.00;94300.50;4990936;28;20200;-60
2022/01/11 07:37:59;;;;;;;1.37;1.10;;;;;;;2.88;100.00;94308.47;4991031;28;20191;-64
2022/01/11 07:40:24;;;;;;;2.03;1.10;;;;;;;2.80;100.00;94300.59;4990955;28;20207;-61
2022/01/11 07:42:51;;;;;;;5.73;1.13;;;;;;;3.01;100.00;94318.56;4992554;28;20184;-61
2022/01/11 07:45:17;;;;;;;1.87;1.40;;;;;;;3.09;100.00;94319.69;4992273;28;20253;-61
2022/01/11 07:47:42;;;;;;;3.57;1.40;;;;;;;3.13;100.00;94318.59;4992315;28;20660;-61
2022/01/11 07:50:08;;;;;;;3.97;2.30;;;;;;;3.23;100.00;94284.47;4991808;28;20222;-61
2022/01/11 07:52:34;;;;;;;2.83;1.70;;;;;;;3.39;100.00;94310.25;4992261;28;20192;-61
2022/01/11 07:55:00;;;;;;;3.30;1.57;;;;;;;3.49;100.00;94330.59;4992156;28;20207;-61
2022/01/11 07:57:26;;;;;;;1.60;1.20;;;;;;;3.64;100.00;94358.97;4992479;28;20212;-60
2022/01/11 07:59:52;;;;;;;2.97;1.73;;;;;;;3.24;100.00;94321.28;4992100;28;20229;-62
2022/01/11 08:02:18;;;;;;;3.57;1.83;;;;;;;3.53;100.00;94323.66;4992329;28;20195;-61
2022/01/11 08:04:43;;;;;;;2.17;1.77;;;;;;;3.56;100.00;94339.34;4991815;28;20285;-63
2022/01/11 08:07:10;;;;;;;1.70;1.40;;;;;;;3.55;100.00;94334.44;4992023;28;20645;-59
2022/01/11 08:09:36;;;;;;;1.70;1.40;;;;;;;3.66;100.00;94347.13;4991784;28;20684;-61
2022/01/11 08:12:02;;;;;;;0.97;0.90;;;;;;;3.65;100.00;94325.41;4991950;28;20191;-62
2022/01/11 08:14:29;;;;;;;1.80;1.40;;;;;;;3.39;100.00;94369.75;4991760;28;20560;-62
2022/01/11 08:16:55;;;;;;;2.37;1.57;;;;;;;3.55;100.00;94345.28;4991786;28;20180;-61
2022/01/11 08:19:24;;;;;;;2.73;1.93;;;;;;;3.53;100.00;94357.16;4991661;28;20208;-61
2022/01/11 08:21:52;;;;;;;1.97;1.47;;;;;;;3.51;100.00;94343.06;4991741;28;20589;-63
2022/01/11 08:24:18;;;;;;;1.90;1.20;;;;;;;3.68;100.00;94360.38;4991849;28;20572;-61
2022/01/11 08:26:44;;;;;;;2.90;1.50;;;;;;;3.61;100.00;94384.31;4991943;28;20191;-63
2022/01/11 08:29:09;;;;;;;2.97;1.70;;;;;;;3.68;100.00;94342.78;4990186;28;20211;-62
2022/01/11 08:31:35;;;;;;;1.10;0.90;;;;;;;3.61;100.00;94354.16;4990480;28;20231;-62
2022/01/11 08:34:00;;;;;;;1.57;1.00;;;;;;;3.64;100.00;94374.03;4992301;28;20180;-61
2022/01/11 08:36:26;;;;;;;1.00;0.90;;;;;;;3.49;100.00;94344.88;4990261;28;20214;-62
2022/01/11 08:38:51;;;;;;;1.27;0.83;;;;;;;3.44;100.00;94355.19;4992059;28;20574;-60
2022/01/11 08:41:22;;;;;;;1.80;1.23;;;;;;;3.50;100.00;94362.34;4991497;28;20290;-60
2022/01/11 08:43:47;;;;;;;3.77;1.90;;;;;;;3.50;100.00;94381.63;4991234;28;20183;-63
2022/01/11 08:46:16;;;;;;;4.73;2.63;;;;;;;3.46;100.00;94375.19;4991343;28;20214;-61
2022/01/11 08:48:41;;;;;;;3.30;2.00;;;;;;;3.55;100.00;94397.25;4991139;28;20184;-60
2022/01/11 08:51:07;;;;;;;3.07;1.50;;;;;;;3.26;100.00;94414.91;4991198;28;20199;-60
2022/01/11 08:53:33;;;;;;;1.97;1.60;;;;;;;2.82;100.00;94378.28;4991726;28;20191;-60
2022/01/11 08:55:59;;;;;;;4.17;2.10;;;;;;;3.21;100.00;94381.72;4989791;28;20235;-62
2022/01/11 08:58:25;;;;;;;2.27;1.63;;;;;;;3.24;100.00;94363.16;4990048;28;20295;-61
2022/01/11 09:00:51;;;;;;;2.83;1.70;;;;;;;3.42;100.00;94375.38;4991152;28;20222;-61
2022/01/11 09:03:17;;;;;;;3.57;1.70;;;;;;;3.57;100.00;94397.97;4991311;28;20589;-61
2022/01/11 09:05:43;;;;;;;0.77;0.77;;;;;;;3.28;100.00;94403.06;4990968;28;20230;-61
2022/01/11 09:08:11;;;;;;;1.13;0.73;;;;;;;3.35;100.00;94395.97;4990757;28;20575;-63
2022/01/11 09:10:36;;;;;;;2.10;1.00;;;;;;;3.30;100.00;94401.25;4990736;28;20216;-61
2022/01/11 09:13:02;;;;;;;3.17;1.50;;;;;;;3.38;100.00;94375.66;4990876;28;20196;-60
2022/01/11 09:15:28;;;;;;;2.00;1.17;;;;;;;3.22;100.00;94398.41;4990972;28;20684;-63
2022/01/11 09:17:54;;;;;;;5.97;1.10;;;;;;;3.26;100.00;94424.13;4991148;28;20210;-61
2022/01/11 09:20:20;;;;;;;1.47;0.97;;;;;;;3.23;100.00;94421.81;4990568;28;20719;-60
2022/01/11 09:22:46;;;;;;;5.07;1.37;;;;;;;3.07;100.00;94429.44;4990929;28;20183;-63
2022/01/11 09:25:13;;;;;;;2.27;1.80;;;;;;;3.03;100.00;94423.00;4990737;28;20206;-60
2022/01/11 09:27:38;;;;;;;6.07;2.33;;;;;;;2.88;100.00;94431.44;4991049;28;20200;-63
2022/01/11 09:30:08;;;;;;;4.77;2.20;;;;;;;2.59;100.00;94402.22;4990585;28;20238;-63
2022/01/11 09:32:35;;;;;;;4.30;2.30;;;;;;;2.84;100.00;94411.63;4990965;28;20190;-61
2022/01/11 09:35:03;;;;;;;4.97;2.53;;;;;;;2.72;100.00;94430.72;4990502;28;20284;-62
2022/01/11 09:37:28;;;;;;;4.13;2.50;;;;;;;2.59;100.00;94406.44;4990491;28;20194;-61
2022/01/11 09:39:54;;;;;;;5.83;3.30;;;;;;;2.46;100.00;94457.28;4990634;28;20203;-61
2022/01/11 09:42:20;;;;;;;4.37;2.57;;;;;;;2.51;100.00;94427.75;4990490;28;20193;-63
2022/01/11 09:44:47;;;;;;;1.90;1.43;;;;;;;2.61;100.00;94444.78;4990795;28;20608;-63
2022/01/11 09:47:13;;;;;;;2.97;1.73;;;;;;;2.65;100.00;94477.13;4990819;28;20278;-64
2022/01/11 09:49:47;;;;;;;1.77;1.33;;;;;;;2.31;100.00;94448.13;4990518;28;20272;-61
2022/01/11 09:52:22;;;;;;;1.57;1.43;;;;;;;2.26;100.00;94464.31;4990586;28;20250;-61
2022/01/11 09:54:48;;;;;;;1.57;1.20;;;;;;;2.08;100.00;94461.13;4989284;28;20199;-61
2022/01/11 09:57:14;;;;;;;2.53;1.53;;;;;;;2.27;100.00;94464.25;4990340;28;20195;-60
2022/01/11 09:59:41;;;;;;;1.70;1.17;;;;;;;2.15;100.00;94454.06;4990503;28;20201;-62
2022/01/11 10:02:07;;;;;;;2.67;1.87;;;;;;;1.99;100.00;94459.13;4990407;28;20698;-63
2022/01/11 10:04:35;;;;;;;2.50;1.40;;;;;;;2.17;100.00;94448.09;4988788;28;20601;-61
2022/01/11 10:07:04;;;;;;;1.93;1.33;;;;;;;2.06;100.00;94447.06;4990217;28;20176;-62
2022/01/11 10:09:31;;;;;;;3.07;1.60;;;;;;;2.28;100.00;94490.13;4990263;28;20207;-61
2022/01/11 10:11:59;;;;;;;2.80;1.73;;;;;;;2.05;100.00;94450.47;4990189;28;20179;-62
2022/01/11 10:14:32;;;;;;;3.77;1.67;;;;;;;2.13;100.00;94444.13;4989910;28;20176;-61
2022/01/11 10:17:27;;;;;;;3.70;1.90;;;;;;;2.13;100.00;94421.56;4989990;28;20173;-61
2022/01/11 10:20:09;;;;;;;3.63;1.73;;;;;;;2.13;100.00;94446.66;4989915;28;20249;-62
2022/01/11 10:22:48;;;;;;;4.80;1.70;;;;;;;2.12;100.00;94486.84;4988428;28;20708;-62
2022/01/11 10:25:15;;;;;;;3.73;1.90;;;;;;;2.10;100.00;94446.81;4989667;28;20234;-63
2022/01/11 10:27:41;;;;;;;2.67;1.70;;;;;;;2.09;100.00;94492.00;4989835;28;20202;-60
2022/01/11 10:30:17;;;;;;;2.23;1.30;;;;;;;1.90;100.00;94452.09;4989592;28;20699;-63
2022/01/11 10:32:48;;;;;;;1.90;1.40;;;;;;;1.77;100.00;94456.19;4989598;28;20183;-62
2022/01/11 10:35:18;;;;;;;1.70;1.60;;;;;;;1.97;100.00;94460.09;4989518;28;20199;-61
2022/01/11 10:37:46;;;;;;;2.17;1.63;;;;;;;2.01;100.00;94484.91;4990025;28;20191;-61
2022/01/11 10:40:11;;;;;;;2.53;1.93;;;;;;;1.80;100.00;94480.28;4989736;28;20212;-63
2022/01/11 10:42:58;;;;;;;3.87;2.13;;;;;;;1.77;100.00;94466.19;4987912;28;20638;-62
2022/01/11 10:45:27;;;;;;;2.83;1.90;;;;;;;1.81;100.00;94454.31;4989183;28;20248;-62
2022/01/11 10:47:55;;;;;;;3.83;1.60;;;;;;;1.90;100.00;94474.66;4989548;28;20188;-63
2022/01/11 10:50:34;;;;;;;2.40;1.60;;;;;;;2.04;100.00;94473.94;4989296;28;20261;-61
2022/01/11 10:53:02;;;;;;;2.10;1.30;;;;;;;1.73;100.00;94452.22;4988193;28;20195;-61
2022/01/11 10:55:30;;;;;;;2.83;1.57;;;;;;;1.61;100.00;94490.44;4987759;28;20572;-62
2022/01/11 10:57:59;;;;;;;1.97;1.30;;;;;;;1.83;100.00;94442.50;4987942;28;20219;-64
2022/01/11 11:00:28;;;;;;;1.90;1.30;;;;;;;1.79;100.00;94493.66;4989098;28;20200;-62
2022/01/11 11:03:02;;;;;;;2.60;1.30;;;;;;;1.81;100.00;94487.69;4989588;28;20194;-62
2022/01/11 11:05:39;;;;;;;2.30;1.53;;;;;;;1.63;100.00;94469.44;4989250;28;20199;-64
2022/01/11 11:08:20;;;;;;;2.00;1.20;;;;;;;1.33;100.00;94480.25;4993185;28;20301;-61
2022/01/11 11:11:10;;;;;;;2.77;1.60;;;;;;;1.65;100.00;94459.34;4992455;28;20222;-63
2022/01/11 11:13:41;;;;;;;5.33;2.13;;;;;;;1.53;100.00;94497.56;4992468;28;20666;-61
2022/01/11 11:16:26;;;;;;;2.43;1.80;;;;;;;1.91;100.00;94488.00;4992390;28;20214;-64
2022/01/11 11:18:54;;;;;;;2.67;2.10;;;;;;;1.92;100.00;94497.16;4992745;28;20206;-61
2022/01/11 11:21:32;;;;;;;1.40;1.20;;;;;;;1.84;100.00;94520.09;4992288;28;20282;-60
2022/01/11 11:24:02;;;;;;;1.30;1.20;;;;;;;1.74;100.00;94501.44;4992472;28;20179;-62
2022/01/11 11:26:38;;;;;;;1.83;1.40;;;;;;;1.95;100.00;94491.94;4990893;28;20275;-63
2022/01/11 11:29:09;;;;;;;2.47;1.60;;;;;;;1.70;100.00;94480.75;4990998;28;20258;-62
2022/01/11 11:31:35;;;;;;;3.23;1.60;;;;;;;1.45;100.00;94505.47;4990883;28;20241;-62
2022/01/11 11:34:02;;;;;;;1.70;1.10;;;;;;;1.69;100.00;94479.16;4992505;28;20203;-63
2022/01/11 11:36:29;;;;;;;2.87;1.40;;;;;;;1.61;100.00;94498.78;5007168;28;20214;-64